createdAt,value
2022-10-10T00:01:35.841Z,5.80
2022-10-10T00:04:03.629Z,10.43
2022-10-10T00:06:33.341Z,3.97
2022-10-10T00:09:01.231Z,3.47
2022-10-10T00:11:28.396Z,3.50
2022-10-10T00:13:55.530Z,5.17
2022-10-10T00:16:23.099Z,2.43
2022-10-10T00:18:51.578Z,4.90
2022-10-10T00:21:18.651Z,4.40
2022-10-10T00:23:45.764Z,5.67
2022-10-10T00:26:18.552Z,4.93
2022-10-10T00:28:46.487Z,2.50
2022-10-10T00:31:13.577Z,2.50
2022-10-10T00:33:40.699Z,9.73
2022-10-10T00:36:09.136Z,7.30
2022-10-10T00:38:36.325Z,3.60
2022-10-10T00:41:03.465Z,3.23
2022-10-10T00:43:30.756Z,5.93
2022-10-10T00:45:57.915Z,3.90
2022-10-10T00:48:26.486Z,2.57
2022-10-10T00:50:55.869Z,3.67
2022-10-10T00:53:26.480Z,6.10
2022-10-10T00:55:53.937Z,4.57
2022-10-10T00:58:21.435Z,3.10
2022-10-10T01:00:48.618Z,5.77
2022-10-10T01:03:15.751Z,5.87
2022-10-10T01:05:43.638Z,3.40
2022-10-10T01:08:10.970Z,3.30
2022-10-10T01:10:42.968Z,2.80
2022-10-10T01:13:12.952Z,3.10
2022-10-10T01:15:47.519Z,3.83
2022-10-10T01:18:17.855Z,3.77
2022-10-10T01:20:58.422Z,3.90
2022-10-10T01:23:40.386Z,4.13
2022-10-10T01:26:18.988Z,5.37
2022-10-10T01:28:51.401Z,5.10
2022-10-10T01:31:21.185Z,3.30
2022-10-10T01:33:52.974Z,3.60
2022-10-10T01:36:23.031Z,7.03
2022-10-10T01:38:52.945Z,5.40
2022-10-10T01:41:22.677Z,3.90
2022-10-10T01:43:54.553Z,4.07
2022-10-10T01:46:21.673Z,3.33
2022-10-10T01:48:49.456Z,3.20
2022-10-10T01:51:22.854Z,2.40
2022-10-10T01:53:54.190Z,2.90
2022-10-10T01:56:27.406Z,3.20
2022-10-10T01:59:01.429Z,2.83
2022-10-10T02:01:34.289Z,4.33
2022-10-10T02:04:05.243Z,4.83
2022-10-10T02:06:36.514Z,2.97
2022-10-10T02:09:05.896Z,2.43
2022-10-10T02:11:34.322Z,2.23
2022-10-10T02:14:03.708Z,2.87
2022-10-10T02:16:32.487Z,3.40
2022-10-10T02:19:00.162Z,4.67
2022-10-10T02:21:27.483Z,2.33
2022-10-10T02:23:55.937Z,5.00
2022-10-10T02:26:24.402Z,4.03
2022-10-10T02:28:54.650Z,4.47
2022-10-10T02:31:27.410Z,5.83
2022-10-10T02:33:56.134Z,2.53
2022-10-10T02:36:23.670Z,3.40
2022-10-10T02:38:51.382Z,3.50
2022-10-10T02:41:19.991Z,5.37
2022-10-10T02:43:47.271Z,2.17
2022-10-10T02:46:15.175Z,4.53
2022-10-10T02:48:43.774Z,3.53
2022-10-10T02:51:11.271Z,4.77
2022-10-10T02:53:38.771Z,3.80
2022-10-10T02:56:06.074Z,5.13
2022-10-10T02:58:33.326Z,3.00
2022-10-10T03:01:00.496Z,6.03
2022-10-10T03:03:27.681Z,3.43
2022-10-10T03:05:56.132Z,3.90
2022-10-10T03:08:23.245Z,7.90
2022-10-10T03:10:57.086Z,2.73
2022-10-10T03:13:24.227Z,3.70
2022-10-10T03:15:51.307Z,4.10
2022-10-10T03:18:18.527Z,3.23
2022-10-10T03:20:45.722Z,6.60
2022-10-10T03:23:14.278Z,3.20
2022-10-10T03:25:42.198Z,3.50
2022-10-10T03:28:09.318Z,5.60
2022-10-10T03:30:36.536Z,4.70
2022-10-10T03:33:03.977Z,3.23
2022-10-10T03:35:31.103Z,4.10
2022-10-10T03:37:58.650Z,4.70
2022-10-10T03:40:27.791Z,3.83
2022-10-10T03:42:55.277Z,3.97
2022-10-10T03:45:22.513Z,3.33
2022-10-10T03:47:50.593Z,3.37
2022-10-10T03:50:17.828Z,4.73
2022-10-10T03:52:44.939Z,3.77
2022-10-10T03:55:12.041Z,3.10
2022-10-10T03:57:40.570Z,6.67
2022-10-10T04:00:08.344Z,6.13
2022-10-10T04:02:35.454Z,3.60
2022-10-10T04:05:02.607Z,3.70
2022-10-10T04:07:29.790Z,3.43
2022-10-10T04:09:56.852Z,5.57
2022-10-10T04:12:24.175Z,5.93
2022-10-10T04:14:52.606Z,4.37
2022-10-10T04:17:19.712Z,5.90
2022-10-10T04:19:46.811Z,4.47
2022-10-10T04:22:13.974Z,6.23
2022-10-10T04:24:41.242Z,4.40
2022-10-10T04:27:08.375Z,10.60
2022-10-10T04:29:35.458Z,6.40
2022-10-10T04:32:03.999Z,7.23
2022-10-10T04:34:31.103Z,9.13
2022-10-10T04:36:58.188Z,4.40
2022-10-10T04:39:25.392Z,6.40
2022-10-10T04:41:52.509Z,5.20
2022-10-10T04:44:19.850Z,4.13
2022-10-10T04:46:46.961Z,5.00
2022-10-10T04:49:15.397Z,7.73
2022-10-10T04:51:42.512Z,7.73
2022-10-10T04:54:09.657Z,5.40
2022-10-10T04:56:36.803Z,5.07
2022-10-10T04:59:03.909Z,3.83
2022-10-10T05:01:31.090Z,6.03
2022-10-10T05:03:58.188Z,10.47
2022-10-10T05:06:26.663Z,8.10
2022-10-10T05:08:53.754Z,8.07
2022-10-10T05:11:20.868Z,6.80
2022-10-10T05:13:47.948Z,8.57
2022-10-10T05:16:15.057Z,7.13
2022-10-10T05:18:42.132Z,11.27
2022-10-10T05:21:09.339Z,9.20
2022-10-10T05:23:38.232Z,4.80
2022-10-10T05:26:05.588Z,5.63
2022-10-10T05:28:32.722Z,8.53
2022-10-10T05:30:59.863Z,5.03
2022-10-10T05:33:27.017Z,8.03
2022-10-10T05:35:54.148Z,6.70
2022-10-10T05:38:21.239Z,10.03
2022-10-10T05:40:49.699Z,7.67
2022-10-10T05:43:16.774Z,8.77
2022-10-10T05:45:43.854Z,6.10
2022-10-10T05:48:10.995Z,8.30
2022-10-10T05:50:39.766Z,8.73
2022-10-10T05:53:06.975Z,7.10
2022-10-10T05:55:34.141Z,7.83
2022-10-10T05:58:02.564Z,10.80
2022-10-10T06:00:29.634Z,8.93
2022-10-10T06:02:56.849Z,10.20
2022-10-10T06:05:24.016Z,9.60
2022-10-10T06:08:11.606Z,8.50
2022-10-10T06:10:38.840Z,12.10
2022-10-10T06:13:07.279Z,9.73
2022-10-10T06:15:34.378Z,9.53
2022-10-10T06:18:01.470Z,8.40
2022-10-10T06:20:28.652Z,10.43
2022-10-10T06:22:55.928Z,8.17
2022-10-10T06:25:40.191Z,6.43
2022-10-10T06:28:10.922Z,10.10
2022-10-10T06:30:40.369Z,8.43
2022-10-10T06:33:07.454Z,7.20
2022-10-10T06:35:34.538Z,12.83
2022-10-10T06:38:01.648Z,9.53
2022-10-10T06:40:28.737Z,13.63
2022-10-10T06:42:55.801Z,11.90
2022-10-10T06:45:24.239Z,6.43
2022-10-10T06:47:51.317Z,11.50
2022-10-10T06:50:18.416Z,8.83
2022-10-10T06:52:45.508Z,8.73
2022-10-10T06:55:12.670Z,7.70
2022-10-10T06:57:39.769Z,5.23
2022-10-10T07:00:07.493Z,5.60
2022-10-10T07:02:35.953Z,7.03
2022-10-10T07:05:03.071Z,9.33
2022-10-10T07:07:30.173Z,6.57
2022-10-10T07:09:57.289Z,7.33
2022-10-10T07:12:24.370Z,7.97
2022-10-10T07:14:51.463Z,10.40
2022-10-10T07:17:18.577Z,6.53
2022-10-10T07:19:47.010Z,7.60
2022-10-10T07:22:14.138Z,7.00
2022-10-10T07:24:41.265Z,8.80
2022-10-10T07:27:09.028Z,7.87
2022-10-10T07:29:36.228Z,8.43
2022-10-10T07:32:03.359Z,8.23
2022-10-10T07:34:30.446Z,8.77
2022-10-10T07:36:58.889Z,9.13
2022-10-10T07:39:26.675Z,6.60
2022-10-10T07:41:53.781Z,5.47
2022-10-10T07:44:21.268Z,7.53
2022-10-10T07:46:48.338Z,9.30
2022-10-10T07:49:15.461Z,15.63
2022-10-10T07:51:42.548Z,8.73
2022-10-10T07:54:11.160Z,10.77
2022-10-10T07:56:38.249Z,9.80
2022-10-10T07:59:05.334Z,12.73
2022-10-10T08:01:32.504Z,10.90
2022-10-10T08:03:59.626Z,8.13
2022-10-10T08:06:26.815Z,9.20
2022-10-10T08:08:53.915Z,12.50
2022-10-10T08:11:22.754Z,8.60
2022-10-10T08:13:50.216Z,8.93
2022-10-10T08:16:17.504Z,7.53
2022-10-10T08:18:44.593Z,6.93
2022-10-10T08:21:12.862Z,9.33
2022-10-10T08:23:40.112Z,14.40
2022-10-10T08:26:08.207Z,11.80
2022-10-10T08:28:37.238Z,9.07
2022-10-10T08:31:06.212Z,8.03
2022-10-10T08:33:33.499Z,11.20
2022-10-10T08:36:04.598Z,12.00
2022-10-10T08:38:31.714Z,5.43
2022-10-10T08:41:00.605Z,9.43
2022-10-10T08:43:30.912Z,7.53
2022-10-10T08:45:59.417Z,7.33
2022-10-10T08:48:28.495Z,7.70
2022-10-10T08:50:57.445Z,8.07
2022-10-10T08:53:27.953Z,9.67
2022-10-10T08:55:55.899Z,10.70
2022-10-10T08:58:24.780Z,7.53
2022-10-10T09:00:55.576Z,7.83
2022-10-10T09:03:27.541Z,8.50
2022-10-10T09:06:05.541Z,5.73
2022-10-10T09:08:41.533Z,7.73
2022-10-10T09:11:15.713Z,8.80
2022-10-10T09:13:45.339Z,7.80
2022-10-10T09:16:20.445Z,9.37
2022-10-10T09:18:54.083Z,8.03
2022-10-10T09:21:22.768Z,7.33
2022-10-10T09:23:51.475Z,5.60
2022-10-10T09:26:20.421Z,7.77
2022-10-10T09:28:50.630Z,8.47
2022-10-10T09:31:18.829Z,10.50
2022-10-10T09:33:49.362Z,8.03
2022-10-10T09:36:19.295Z,7.57
2022-10-10T09:38:48.496Z,11.20
2022-10-10T09:41:17.535Z,9.73
2022-10-10T09:43:44.782Z,8.67
2022-10-10T09:46:11.900Z,9.33
2022-10-10T09:48:39.838Z,8.90
2022-10-10T09:51:08.833Z,8.90
2022-10-10T09:53:37.318Z,6.80
2022-10-10T09:56:05.469Z,9.60
2022-10-10T09:58:34.698Z,6.17
2022-10-10T10:01:13.270Z,10.20
2022-10-10T10:03:40.407Z,7.23
2022-10-10T10:06:11.549Z,6.80
2022-10-10T10:08:40.181Z,6.13
2022-10-10T10:11:20.811Z,7.17
2022-10-10T10:13:54.073Z,11.63
2022-10-10T10:16:29.679Z,8.70
2022-10-10T10:18:56.798Z,7.83
2022-10-10T10:21:24.860Z,5.90
2022-10-10T10:23:55.397Z,7.00
2022-10-10T10:26:24.199Z,9.20
2022-10-10T10:28:52.652Z,9.73
2022-10-10T10:31:27.985Z,7.83
2022-10-10T10:34:02.006Z,8.47
2022-10-10T10:36:35.086Z,7.87
2022-10-10T10:39:09.546Z,5.80
2022-10-10T10:41:40.114Z,8.47
2022-10-10T10:44:21.612Z,7.57
2022-10-10T10:46:55.237Z,10.97
2022-10-10T10:49:25.511Z,5.37
2022-10-10T10:52:11.062Z,8.30
2022-10-10T10:54:45.610Z,6.10
2022-10-10T11:00:25.826Z,8.73
2022-10-10T11:03:20.597Z,6.60
2022-10-10T11:05:48.737Z,9.73
2022-10-10T11:08:22.732Z,10.93
2022-10-10T11:10:54.440Z,11.30
2022-10-10T11:13:25.984Z,6.80
2022-10-10T11:16:24.285Z,9.77
2022-10-10T11:18:45.989Z,6.93
2022-10-10T11:21:14.936Z,6.87
2022-10-10T11:23:44.115Z,4.73
2022-10-10T11:26:13.654Z,5.80
2022-10-10T11:28:45.006Z,14.00
2022-10-10T11:31:19.262Z,9.57
2022-10-10T11:33:47.559Z,13.10
2022-10-10T11:36:16.734Z,6.47
2022-10-10T11:38:46.083Z,7.13
2022-10-10T11:41:16.692Z,11.20
2022-10-10T11:43:47.068Z,10.30
2022-10-10T11:46:18.533Z,6.50
2022-10-10T11:48:48.436Z,6.70
2022-10-10T11:51:18.953Z,8.03
2022-10-10T11:53:46.484Z,10.00
2022-10-10T11:56:18.112Z,6.57
2022-10-10T11:58:46.719Z,8.57
2022-10-10T12:01:16.686Z,4.00
2022-10-10T12:03:44.034Z,12.93
2022-10-10T12:06:15.237Z,7.30
2022-10-10T12:08:46.313Z,7.30
2022-10-10T12:11:18.621Z,9.03
2022-10-10T12:13:47.538Z,9.00
2022-10-10T12:16:16.266Z,5.97
2022-10-10T12:18:45.056Z,11.43
2022-10-10T12:21:13.779Z,8.17
2022-10-10T12:23:41.446Z,13.93
2022-10-10T12:26:13.352Z,12.70
2022-10-10T12:29:00.693Z,6.43
2022-10-10T12:31:28.955Z,6.73
2022-10-10T12:34:00.566Z,10.87
2022-10-10T12:36:57.958Z,14.00
2022-10-10T12:39:32.839Z,6.07
2022-10-10T12:42:00.084Z,12.80
2022-10-10T12:44:42.250Z,9.77
2022-10-10T12:47:46.313Z,15.87
2022-10-10T12:50:22.545Z,5.40
2022-10-10T12:52:52.168Z,7.83
2022-10-10T12:55:20.758Z,9.07
2022-10-10T12:57:48.973Z,8.27
2022-10-10T13:00:18.871Z,11.03
2022-10-10T13:02:47.327Z,11.40
2022-10-10T13:05:15.781Z,10.13
2022-10-10T13:07:43.259Z,6.10
2022-10-10T13:10:20.153Z,10.80
2022-10-10T13:12:58.368Z,7.70
2022-10-10T13:15:26.963Z,13.60
2022-10-10T13:17:54.017Z,11.77
2022-10-10T13:20:27.816Z,9.73
2022-10-10T13:22:56.207Z,9.03
2022-10-10T13:25:23.425Z,9.47
2022-10-10T13:27:50.629Z,14.57
2022-10-10T13:30:19.526Z,10.97
2022-10-10T13:32:48.240Z,6.67
2022-10-10T13:35:17.021Z,7.47
2022-10-10T13:37:44.554Z,18.67
2022-10-10T13:40:14.271Z,16.17
2022-10-10T13:42:41.576Z,13.50
2022-10-10T13:45:27.873Z,13.03
2022-10-10T13:48:10.576Z,8.33
2022-10-10T13:50:53.528Z,11.33
2022-10-10T13:53:25.169Z,14.67
2022-10-10T13:55:58.149Z,9.83
2022-10-10T13:58:25.433Z,14.63
2022-10-10T14:00:56.552Z,15.07
2022-10-10T14:03:25.583Z,12.17
2022-10-10T14:05:52.938Z,12.57
2022-10-10T14:08:20.885Z,15.30
2022-10-10T14:10:56.640Z,9.73
2022-10-10T14:13:23.811Z,10.93
2022-10-10T14:15:50.952Z,18.30
2022-10-10T14:18:18.982Z,13.23
2022-10-10T14:20:47.890Z,10.87
2022-10-10T14:23:15.409Z,13.50
2022-10-10T14:25:43.327Z,8.60
2022-10-10T14:28:15.312Z,16.67
2022-10-10T14:30:42.507Z,19.57
2022-10-10T14:33:10.861Z,9.20
2022-10-10T14:35:38.601Z,10.27
2022-10-10T14:38:07.035Z,6.37
2022-10-10T14:40:34.666Z,15.10
2022-10-10T14:43:01.751Z,7.17
2022-10-10T14:45:28.966Z,12.87
2022-10-10T14:47:56.118Z,12.63
2022-10-10T14:50:24.072Z,17.90
2022-10-10T14:52:51.177Z,14.57
2022-10-10T14:55:19.764Z,13.87
2022-10-10T14:57:46.940Z,11.13
2022-10-10T15:00:15.509Z,10.83
2022-10-10T15:02:45.566Z,7.50
2022-10-10T15:05:13.056Z,10.27
2022-10-10T15:07:40.320Z,8.40
2022-10-10T15:12:56.247Z,11.90
2022-10-10T15:15:23.323Z,14.43
2022-10-10T15:17:50.436Z,19.07
2022-10-10T15:20:17.655Z,7.47
2022-10-10T15:22:44.797Z,13.80
2022-10-10T15:25:11.894Z,5.07
2022-10-10T15:27:39.115Z,8.97
2022-10-10T15:30:08.453Z,5.03
2022-10-10T15:32:37.893Z,10.97
2022-10-10T15:35:05.191Z,14.93
2022-10-10T15:37:32.267Z,13.57
2022-10-10T15:39:59.393Z,11.37
2022-10-10T15:42:26.521Z,14.07
2022-10-10T15:44:53.620Z,12.90
2022-10-10T15:47:22.098Z,13.07
2022-10-10T15:49:49.435Z,9.80
2022-10-10T15:52:16.654Z,11.70
2022-10-10T15:54:43.692Z,16.23
2022-10-10T15:57:13.205Z,10.93
2022-10-10T15:59:44.148Z,7.03
2022-10-10T16:02:12.207Z,9.93
2022-10-10T16:04:40.633Z,12.63
2022-10-10T16:09:55.040Z,14.27
2022-10-10T16:12:22.156Z,8.77
2022-10-10T16:14:49.291Z,7.57
2022-10-10T16:17:20.793Z,5.13
2022-10-10T16:19:51.671Z,14.33
2022-10-10T16:22:18.766Z,9.57
2022-10-10T16:24:58.298Z,9.20
2022-10-10T16:27:31.132Z,10.73
2022-10-10T16:29:58.258Z,10.40
2022-10-10T16:32:25.457Z,7.60
2022-10-10T16:34:53.859Z,8.07
2022-10-10T16:37:20.973Z,6.93
2022-10-10T16:39:48.082Z,9.60
2022-10-10T16:42:15.151Z,8.00
2022-10-10T16:44:42.259Z,6.40
2022-10-10T16:47:09.591Z,11.67
2022-10-10T16:49:36.688Z,7.47
2022-10-10T16:52:05.254Z,6.67
2022-10-10T16:54:32.357Z,10.20
2022-10-10T16:56:59.497Z,10.67
2022-10-10T16:59:26.570Z,21.63
2022-10-10T17:01:53.648Z,12.20
2022-10-10T17:04:20.716Z,11.73
2022-10-10T17:06:47.806Z,10.50
2022-10-10T17:09:16.270Z,11.30
2022-10-10T17:11:44.634Z,14.13
2022-10-10T17:14:14.157Z,9.67
2022-10-10T17:19:28.314Z,9.03
2022-10-10T17:21:55.793Z,9.07
2022-10-10T17:24:24.649Z,11.30
2022-10-10T17:26:51.759Z,5.60
2022-10-10T17:29:18.910Z,8.97
2022-10-10T17:31:46.010Z,9.43
2022-10-10T17:34:13.080Z,8.17
2022-10-10T17:36:40.186Z,10.57
2022-10-10T17:39:07.253Z,10.53
2022-10-10T17:41:35.726Z,14.97
2022-10-10T17:44:02.858Z,8.30
2022-10-10T17:46:34.818Z,10.80
2022-10-10T17:49:03.171Z,10.70
2022-10-10T17:51:30.264Z,7.10
2022-10-10T17:53:58.980Z,8.73
2022-10-10T17:56:26.070Z,9.90
2022-10-10T17:58:54.531Z,11.40
2022-10-10T18:01:22.319Z,13.73
2022-10-10T18:03:49.757Z,7.27
2022-10-10T18:06:18.049Z,8.53
2022-10-10T18:08:46.534Z,6.87
2022-10-10T18:11:14.193Z,5.90
2022-10-10T18:13:41.530Z,5.47
2022-10-10T18:16:11.144Z,6.30
2022-10-10T18:18:38.521Z,7.40
2022-10-10T18:21:08.201Z,10.20
2022-10-10T18:23:35.513Z,6.67
2022-10-10T18:26:03.293Z,10.30
2022-10-10T18:28:31.120Z,5.83
2022-10-10T18:30:58.385Z,5.93
2022-10-10T18:33:26.825Z,12.03
2022-10-10T18:35:53.919Z,12.03
2022-10-10T18:38:20.974Z,9.03
2022-10-10T18:40:48.061Z,9.20
2022-10-10T18:43:15.153Z,7.43
2022-10-10T18:45:42.204Z,15.90
2022-10-10T18:48:09.295Z,13.90
2022-10-10T18:50:37.739Z,9.20
2022-10-10T18:53:04.854Z,10.50
2022-10-10T18:55:31.941Z,16.67
2022-10-10T18:57:59.636Z,17.80
2022-10-10T19:00:26.707Z,8.00
2022-10-10T19:02:53.796Z,13.90
2022-10-10T19:05:20.943Z,13.33
2022-10-10T19:07:49.354Z,11.60
2022-10-10T19:10:16.485Z,11.30
2022-10-10T19:12:47.175Z,16.67
2022-10-10T19:15:14.520Z,16.50
2022-10-10T19:17:41.616Z,21.70
2022-10-10T19:20:09.062Z,12.37
2022-10-10T19:22:36.118Z,12.33
2022-10-10T19:25:04.916Z,11.13
2022-10-10T19:27:32.027Z,10.70
2022-10-10T19:29:59.074Z,12.13
2022-10-10T19:32:26.161Z,13.70
2022-10-10T19:34:53.309Z,5.97
2022-10-10T19:37:20.420Z,10.33
2022-10-10T19:39:47.487Z,13.13
2022-10-10T19:42:15.918Z,10.77
2022-10-10T19:44:43.020Z,10.40
2022-10-10T19:47:10.161Z,13.27
2022-10-10T19:49:37.349Z,16.57
2022-10-10T19:52:04.584Z,5.10
2022-10-10T19:54:31.853Z,9.00
2022-10-10T19:56:58.946Z,14.30
2022-10-10T19:59:27.454Z,16.43
2022-10-10T20:01:54.601Z,8.40
2022-10-10T20:04:21.748Z,6.87
2022-10-10T20:06:49.023Z,16.03
2022-10-10T20:09:16.133Z,12.60
2022-10-10T20:11:43.214Z,10.70
2022-10-10T20:14:10.448Z,13.67
2022-10-10T20:16:38.906Z,15.63
2022-10-10T20:19:06.011Z,7.70
2022-10-10T20:21:33.883Z,9.77
2022-10-10T20:24:01.738Z,10.87
2022-10-10T20:26:29.015Z,11.47
2022-10-10T20:28:57.273Z,12.40
2022-10-10T20:31:25.059Z,11.90
2022-10-10T20:33:54.248Z,14.40
2022-10-10T20:36:21.670Z,11.43
2022-10-10T20:38:51.988Z,17.50
2022-10-10T20:41:19.075Z,10.43
2022-10-10T20:43:46.175Z,17.27
2022-10-10T20:46:13.910Z,11.07
2022-10-10T20:48:41.514Z,8.60
2022-10-10T20:51:10.859Z,18.27
2022-10-10T20:53:38.722Z,18.60
2022-10-10T20:56:06.933Z,11.40
2022-10-10T20:58:34.828Z,17.60
2022-10-10T21:01:05.933Z,13.10
2022-10-10T21:03:33.121Z,15.53
2022-10-10T21:06:04.759Z,15.00
2022-10-10T21:08:33.515Z,15.33
2022-10-10T21:11:00.807Z,18.73
2022-10-10T21:13:28.117Z,8.90
2022-10-10T21:15:55.209Z,10.53
2022-10-10T21:18:22.345Z,10.07
2022-10-10T21:20:49.481Z,11.63
2022-10-10T21:23:16.569Z,16.37
2022-10-10T21:25:44.995Z,7.47
2022-10-10T21:28:12.135Z,16.53
2022-10-10T21:30:46.732Z,13.33
2022-10-10T21:33:13.822Z,11.00
2022-10-10T21:35:40.897Z,8.33
2022-10-10T21:38:07.987Z,19.83
2022-10-10T21:40:35.627Z,12.47
2022-10-10T21:43:04.113Z,11.53
2022-10-10T21:45:34.167Z,14.40
2022-10-10T21:48:01.271Z,13.53
2022-10-10T21:50:28.649Z,13.60
2022-10-10T21:52:55.876Z,9.40
2022-10-10T21:55:23.126Z,14.70
2022-10-10T21:57:50.284Z,12.07
2022-10-10T22:00:19.010Z,14.30
2022-10-10T22:02:46.266Z,16.30
2022-10-10T22:05:13.822Z,16.77
2022-10-10T22:07:41.513Z,12.33
2022-10-10T22:10:09.507Z,12.17
2022-10-10T22:12:36.603Z,12.87
2022-10-10T22:15:03.735Z,17.40
2022-10-10T22:17:32.188Z,13.17
2022-10-10T22:19:59.258Z,12.27
2022-10-10T22:22:26.379Z,21.63
2022-10-10T22:24:53.531Z,21.67
2022-10-10T22:27:20.605Z,12.80
2022-10-10T22:29:47.687Z,18.57
2022-10-10T22:32:14.767Z,12.13
2022-10-10T22:34:43.203Z,15.43
2022-10-10T22:37:10.303Z,15.27
2022-10-10T22:39:37.368Z,11.73
2022-10-10T22:42:04.527Z,14.33
2022-10-10T22:44:31.630Z,20.33
2022-10-10T22:46:58.718Z,17.83
2022-10-10T22:49:25.890Z,13.77
2022-10-10T22:51:54.370Z,19.33
2022-10-10T22:54:21.421Z,16.53
2022-10-10T22:56:49.264Z,11.77
2022-10-10T22:59:16.333Z,13.23
2022-10-10T23:01:43.459Z,12.63
2022-10-10T23:04:10.557Z,19.83
2022-10-10T23:06:37.869Z,19.57
2022-10-10T23:09:06.421Z,13.10
2022-10-10T23:11:33.521Z,22.43
2022-10-10T23:14:01.096Z,19.60
2022-10-10T23:16:28.218Z,17.20
2022-10-10T23:18:55.310Z,6.87
2022-10-10T23:21:22.579Z,13.90
2022-10-10T23:23:49.672Z,17.57
2022-10-10T23:26:18.107Z,7.60
2022-10-10T23:28:45.303Z,19.10
2022-10-10T23:31:12.502Z,24.00
2022-10-10T23:33:39.611Z,19.93
2022-10-10T23:36:08.683Z,14.67
2022-10-10T23:38:36.169Z,12.17
2022-10-10T23:41:03.330Z,17.47
2022-10-10T23:43:31.798Z,15.63
2022-10-10T23:45:58.887Z,14.37
2022-10-10T23:48:26.057Z,11.00
2022-10-10T23:50:53.136Z,19.17
2022-10-10T23:53:20.269Z,13.43
2022-10-10T23:55:47.716Z,16.17
2022-10-10T23:58:14.974Z,16.33
